Time;durP1;ratioP1;P1;durP2;ratioP2;P2;SDS_P1;SDS_P2;PMS_P1;PMS_P2;Temp;Humidity;BMP_temperature;BMP_pressure;BME280_temperature;BME280_humidity;BME280_pressure;Samples;Min_cycle;Max_cycle;Signal;HPM_P1;HPM_P2
2021/08/23 00:00:28;;;;;;;4.07;3.07;;;;;;;15.75;95.35;97126.84;5046877;28;20367;-70
2021/08/23 00:02:53;;;;;;;3.90;3.50;;;;;;;15.61;96.31;97123.00;5035865;28;20232;-63
2021/08/23 00:05:19;;;;;;;3.80;2.93;;;;;;;15.70;96.25;97126.00;5038371;28;20189;-64
2021/08/23 00:07:44;;;;;;;4.00;3.03;;;;;;;15.79;95.48;97129.78;5034035;28;20286;-64
2021/08/23 00:10:10;;;;;;;4.53;3.23;;;;;;;15.68;95.73;97131.53;5039030;28;20198;-64
2021/08/23 00:12:36;;;;;;;5.40;3.10;;;;;;;15.69;95.79;97122.56;5039227;28;20660;-63
2021/08/23 00:15:03;;;;;;;3.27;2.93;;;;;;;15.74;95.67;97119.97;5045880;28;20218;-63
2021/08/23 00:17:28;;;;;;;5.07;3.00;;;;;;;15.72;95.68;97119.41;5046774;28;20209;-72
2021/08/23 00:19:53;;;;;;;3.60;3.17;;;;;;;15.82;95.36;97125.84;5032249;28;20650;-63
2021/08/23 00:22:33;;;;;;;4.17;3.10;;;;;;;15.70;96.19;97128.66;5040826;28;20271;-63
2021/08/23 00:25:00;;;;;;;3.57;2.90;;;;;;;15.84;95.53;97121.09;5039691;28;20179;-64
2021/08/23 00:27:26;;;;;;;3.47;2.80;;;;;;;15.78;95.13;97123.69;5038210;28;20647;-71
2021/08/23 00:29:52;;;;;;;4.77;3.10;;;;;;;15.90;94.05;97118.25;5048056;28;20187;-64
2021/08/23 00:32:18;;;;;;;3.17;2.87;;;;;;;15.86;94.27;97121.66;5036886;28;20704;-63
2021/08/23 00:34:43;;;;;;;3.87;3.17;;;;;;;15.86;94.09;97113.72;5046143;28;20182;-65
2021/08/23 00:37:09;;;;;;;2.63;2.43;;;;;;;15.81;94.86;97117.13;5041711;28;20639;-64
2021/08/23 00:39:35;;;;;;;3.13;2.80;;;;;;;15.75;94.49;97115.47;5042428;28;20235;-66
2021/08/23 00:42:06;;;;;;;3.73;2.50;;;;;;;15.72;94.45;97113.31;5035378;28;20222;-63
2021/08/23 00:44:33;;;;;;;2.90;2.70;;;;;;;15.82;94.00;97110.78;5016754;28;20178;-64
2021/08/23 00:46:59;;;;;;;3.17;2.70;;;;;;;15.70;94.78;97107.50;5038128;28;20545;-64
2021/08/23 00:49:25;;;;;;;2.50;2.30;;;;;;;15.73;94.57;97113.09;5035748;28;20189;-63
2021/08/23 00:51:55;;;;;;;5.07;2.90;;;;;;;15.83;94.26;97108.94;5039980;28;20185;-64
2021/08/23 00:54:20;;;;;;;3.27;2.97;;;;;;;15.77;94.10;97103.59;5038390;28;20190;-64
2021/08/23 00:56:47;;;;;;;2.97;2.77;;;;;;;15.69;94.62;97113.84;5036474;28;20186;-64
2021/08/23 00:59:13;;;;;;;3.40;2.87;;;;;;;15.73;95.21;97105.16;5046730;28;20217;-64
2021/08/23 01:01:54;;;;;;;3.30;2.80;;;;;;;15.82;94.58;97108.16;5038263;28;20275;-64
2021/08/23 01:04:52;;;;;;;3.27;2.97;;;;;;;15.80;94.50;97105.75;5042037;28;20210;-64
2021/08/23 01:07:21;;;;;;;2.80;2.50;;;;;;;15.78;94.44;97110.47;5032680;28;20736;-64
2021/08/23 01:09:52;;;;;;;4.40;2.87;;;;;;;15.82;94.59;97118.72;5041157;28;20749;-64
2021/08/23 01:12:17;;;;;;;3.57;2.80;;;;;;;15.80;94.51;97113.69;5039934;28;20201;-64
2021/08/23 01:14:43;;;;;;;4.13;2.77;;;;;;;15.83;94.36;97116.88;5046047;28;20639;-69
2021/08/23 01:17:09;;;;;;;4.73;2.90;;;;;;;15.75;94.70;97118.91;5036183;28;20666;-64
2021/08/23 01:19:40;;;;;;;3.77;2.90;;;;;;;15.65;95.93;97115.41;5035100;28;20190;-67
2021/08/23 01:22:06;;;;;;;4.77;3.00;;;;;;;15.72;95.23;97115.97;5037987;28;20637;-63
2021/08/23 01:24:37;;;;;;;3.93;2.80;;;;;;;15.74;94.98;97125.25;5052577;28;20196;-64
2021/08/23 01:27:06;;;;;;;3.87;2.27;;;;;;;15.67;95.42;97116.72;5021064;28;20170;-64
2021/08/23 01:30:02;;;;;;;3.73;2.63;;;;;;;15.88;94.49;97111.63;5036593;28;20182;-64
2021/08/23 01:32:28;;;;;;;3.00;2.60;;;;;;;15.82;94.01;97115.28;5042200;28;20182;-72
2021/08/23 01:34:56;;;;;;;2.40;2.10;;;;;;;15.88;93.56;97104.50;5040364;28;20205;-64
2021/08/23 01:37:23;;;;;;;2.87;2.30;;;;;;;15.89;93.18;97114.00;5039011;28;20693;-65
2021/08/23 01:39:49;;;;;;;2.67;2.47;;;;;;;16.08;92.06;97111.78;5035612;28;20206;-65
2021/08/23 01:42:15;;;;;;;2.80;2.53;;;;;;;15.90;93.39;97112.16;5040994;28;20316;-64
2021/08/23 01:44:42;;;;;;;3.70;2.57;;;;;;;15.62;95.72;97111.38;5042016;28;20208;-64
2021/08/23 01:47:08;;;;;;;2.27;2.10;;;;;;;15.78;94.82;97114.97;5042820;28;20190;-63
2021/08/23 01:49:35;;;;;;;3.17;2.37;;;;;;;15.91;93.58;97113.75;5041595;28;20190;-66
2021/08/23 01:52:00;;;;;;;5.70;2.73;;;;;;;15.95;93.31;97115.63;5042493;28;20265;-63
2021/08/23 01:54:26;;;;;;;3.60;2.70;;;;;;;15.98;93.07;97123.09;5048897;28;20269;-71
2021/08/23 01:56:51;;;;;;;6.00;2.57;;;;;;;15.96;93.43;97116.44;5037182;28;20262;-65
2021/08/23 01:59:16;;;;;;;3.83;2.77;;;;;;;16.03;92.79;97115.19;5048444;28;20278;-61
2021/08/23 02:01:42;;;;;;;4.67;2.60;;;;;;;15.93;93.55;97119.59;5038911;28;20214;-64
2021/08/23 02:04:07;;;;;;;2.80;2.60;;;;;;;16.04;92.39;97118.63;5034138;28;20178;-64
2021/08/23 02:06:33;;;;;;;2.17;1.97;;;;;;;16.09;92.17;97111.53;5036709;28;20190;-65
2021/08/23 02:08:59;;;;;;;5.37;2.50;;;;;;;16.00;92.63;97114.88;5048211;28;20184;-64
2021/08/23 02:11:25;;;;;;;2.30;2.20;;;;;;;15.92;92.87;97118.00;5038361;28;20195;-64
2021/08/23 02:13:51;;;;;;;3.63;2.60;;;;;;;15.89;93.15;97105.28;5046513;28;20179;-61
2021/08/23 02:16:16;;;;;;;3.00;2.60;;;;;;;16.07;92.25;97113.63;5039952;28;20187;-62
2021/08/23 02:18:42;;;;;;;2.70;2.50;;;;;;;16.22;90.92;97107.63;5045638;28;20615;-62
2021/08/23 02:21:08;;;;;;;3.53;2.23;;;;;;;16.04;91.70;97113.34;5037926;28;20259;-62
2021/08/23 02:23:34;;;;;;;2.40;2.20;;;;;;;16.09;91.53;97106.25;5032696;28;20659;-62
2021/08/23 02:26:00;;;;;;;2.80;2.33;;;;;;;15.92;92.70;97102.94;5033202;28;20237;-66
2021/08/23 02:28:26;;;;;;;4.63;2.60;;;;;;;16.03;92.33;97106.47;5047095;28;20530;-70
2021/08/23 02:30:51;;;;;;;4.70;2.30;;;;;;;15.93;92.24;97107.19;5036556;28;20321;-65
2021/08/23 02:33:16;;;;;;;3.30;2.20;;;;;;;15.86;93.44;97105.78;5049901;28;20233;-64
2021/08/23 02:35:42;;;;;;;3.00;1.97;;;;;;;15.98;92.92;97106.41;5039097;28;20186;-65
2021/08/23 02:38:07;;;;;;;2.43;2.23;;;;;;;16.01;92.91;97105.91;5037222;28;20182;-62
2021/08/23 02:40:34;;;;;;;2.77;2.17;;;;;;;15.97;93.48;97110.09;5051770;28;20218;-62
2021/08/23 02:42:59;;;;;;;3.13;2.43;;;;;;;16.10;92.30;97105.19;5045142;28;20292;-62
2021/08/23 02:45:25;;;;;;;2.10;1.90;;;;;;;16.08;92.69;97109.13;5039213;28;20294;-69
2021/08/23 02:47:50;;;;;;;3.67;2.40;;;;;;;16.11;92.02;97105.97;5049711;28;20186;-64
2021/08/23 02:50:16;;;;;;;4.77;2.33;;;;;;;15.98;92.48;97107.22;5037773;28;20190;-64
2021/08/23 02:52:41;;;;;;;4.10;2.70;;;;;;;15.93;92.59;97101.91;5042875;28;20666;-62
2021/08/23 02:55:08;;;;;;;3.80;2.37;;;;;;;15.96;92.69;97108.50;5041498;28;20190;-62
2021/08/23 02:57:33;;;;;;;3.50;2.27;;;;;;;15.99;92.33;97105.38;5047123;28;20270;-62
2021/08/23 02:59:59;;;;;;;3.80;2.10;;;;;;;15.80;93.37;97105.75;5035362;28;20273;-62
2021/08/23 03:02:24;;;;;;;2.93;2.30;;;;;;;16.03;92.06;97111.75;5036360;28;20200;-63
2021/08/23 03:04:49;;;;;;;2.57;2.37;;;;;;;16.01;92.19;97113.84;5043332;28;20191;-64
2021/08/23 03:07:15;;;;;;;2.00;1.90;;;;;;;15.89;92.65;97113.19;5043500;28;20178;-64
2021/08/23 03:09:40;;;;;;;2.47;2.27;;;;;;;16.05;91.65;97112.31;5036605;28;20589;-63
2021/08/23 03:12:06;;;;;;;5.03;2.33;;;;;;;15.95;92.54;97112.19;5047402;28;20276;-66
2021/08/23 03:14:32;;;;;;;4.23;2.77;;;;;;;16.06;91.79;97103.28;5031999;28;20644;-63
2021/08/23 03:16:57;;;;;;;2.70;2.20;;;;;;;16.03;92.14;97109.09;5040287;28;20703;-63
2021/08/23 03:19:23;;;;;;;3.77;2.40;;;;;;;16.12;91.70;97108.38;5043714;28;20250;-63
2021/08/23 03:21:48;;;;;;;2.57;2.13;;;;;;;16.06;92.44;97103.28;5046990;28;20218;-63
2021/08/23 03:24:14;;;;;;;2.63;2.43;;;;;;;16.09;92.22;97100.97;5049119;28;20543;-66
2021/08/23 03:26:39;;;;;;;3.30;2.33;;;;;;;16.04;92.42;97108.06;5038415;28;20588;-63
2021/08/23 03:29:05;;;;;;;2.40;2.20;;;;;;;16.00;92.59;97102.47;5042081;28;20659;-63
2021/08/23 03:31:31;;;;;;;2.50;2.30;;;;;;;15.99;92.58;97098.25;5037929;28;20189;-65
2021/08/23 03:33:56;;;;;;;2.40;2.20;;;;;;;16.03;92.45;97096.69;5035286;28;20191;-65
2021/08/23 03:36:22;;;;;;;2.70;2.20;;;;;;;15.93;92.53;97098.44;5047211;28;20186;-63
2021/08/23 03:38:48;;;;;;;2.57;2.30;;;;;;;15.83;93.66;97103.66;5031639;28;20175;-63
2021/08/23 03:41:14;;;;;;;4.77;2.77;;;;;;;15.96;92.68;97104.03;5043650;28;20222;-63
2021/08/23 03:43:40;;;;;;;2.43;2.17;;;;;;;16.08;91.83;97106.50;5035908;28;20202;-63
2021/08/23 03:46:05;;;;;;;3.73;2.40;;;;;;;16.01;92.69;97104.06;5048745;28;20205;-63
2021/08/23 03:48:31;;;;;;;2.50;2.30;;;;;;;16.03;92.45;97109.09;5037135;28;20174;-65
2021/08/23 03:50:56;;;;;;;3.57;2.30;;;;;;;16.14;91.51;97110.78;5050768;28;20178;-63
2021/08/23 03:53:22;;;;;;;2.93;2.40;;;;;;;15.96;92.72;97105.88;5032562;28;20190;-63
2021/08/23 03:55:47;;;;;;;3.47;2.37;;;;;;;15.92;93.40;97110.88;5046977;28;20247;-66
2021/08/23 03:58:12;;;;;;;3.73;2.30;;;;;;;15.96;93.13;97108.50;5035253;28;20183;-63
2021/08/23 04:00:38;;;;;;;4.17;2.90;;;;;;;15.97;93.06;97108.25;5043612;28;20236;-63
2021/08/23 04:03:03;;;;;;;2.20;2.10;;;;;;;15.94;93.50;97110.63;5041296;28;20288;-63
2021/08/23 04:05:28;;;;;;;2.67;2.43;;;;;;;15.98;92.99;97112.50;5049943;28;20177;-71
2021/08/23 04:07:54;;;;;;;2.40;2.20;;;;;;;16.03;92.80;97115.19;5035488;28;20644;-63
2021/08/23 04:10:19;;;;;;;3.17;2.33;;;;;;;16.06;92.35;97111.22;5045976;28;20265;-62
2021/08/23 04:12:45;;;;;;;2.20;2.00;;;;;;;16.02;92.53;97108.31;5036583;28;20192;-62
2021/08/23 04:15:10;;;;;;;2.40;2.10;;;;;;;15.96;92.73;97111.94;5041183;28;20221;-63
2021/08/23 04:17:36;;;;;;;3.07;2.10;;;;;;;15.97;92.75;97110.91;5042996;28;20190;-63
2021/08/23 04:20:02;;;;;;;3.67;2.30;;;;;;;15.91;92.69;97111.91;5036121;28;20178;-63
2021/08/23 04:22:27;;;;;;;2.67;2.47;;;;;;;15.93;92.40;97112.47;5046288;28;20202;-70
2021/08/23 04:24:53;;;;;;;2.77;2.03;;;;;;;15.93;92.46;97109.03;5035992;28;20587;-63
2021/08/23 04:27:18;;;;;;;2.60;2.40;;;;;;;15.93;92.50;97111.66;5041471;28;20194;-63
2021/08/23 04:29:43;;;;;;;2.00;1.90;;;;;;;15.89;93.14;97121.13;5043331;28;20264;-63
2021/08/23 04:32:09;;;;;;;3.67;2.30;;;;;;;15.95;92.87;97117.47;5034539;28;20182;-63
2021/08/23 04:34:35;;;;;;;2.93;2.27;;;;;;;16.11;91.82;97127.94;5048540;28;20636;-63
2021/08/23 04:37:03;;;;;;;2.97;2.43;;;;;;;16.10;91.83;97128.19;5044263;28;20577;-63
2021/08/23 04:39:31;;;;;;;2.93;2.33;;;;;;;16.18;91.25;97122.44;5041647;28;20707;-70
2021/08/23 04:41:56;;;;;;;2.97;2.60;;;;;;;16.12;91.83;97121.59;5049293;28;20221;-63
2021/08/23 04:44:21;;;;;;;1.93;1.80;;;;;;;16.12;92.21;97124.25;5048397;28;20639;-67
2021/08/23 04:46:49;;;;;;;2.37;2.17;;;;;;;16.19;92.07;97124.03;5031286;28;20175;-63
2021/08/23 04:49:14;;;;;;;3.30;1.97;;;;;;;16.25;91.54;97125.66;5041900;28;20193;-63
2021/08/23 04:51:40;;;;;;;2.90;2.37;;;;;;;16.29;91.18;97134.69;5044889;28;20269;-63
2021/08/23 04:54:05;;;;;;;2.00;1.90;;;;;;;16.26;91.51;97132.56;5032422;28;20265;-62
2021/08/23 04:56:30;;;;;;;2.63;2.03;;;;;;;16.31;90.80;97137.06;5034712;28;20631;-70
2021/08/23 04:58:56;;;;;;;2.40;2.00;;;;;;;16.20;91.28;97133.56;5042556;28;20263;-63
2021/08/23 05:01:21;;;;;;;4.10;2.30;;;;;;;16.17;91.45;97137.50;5042261;28;20651;-62
2021/08/23 05:03:47;;;;;;;2.57;2.13;;;;;;;16.08;92.97;97131.09;5032255;28;20205;-62
2021/08/23 05:06:12;;;;;;;2.10;1.90;;;;;;;15.90;95.61;97143.88;5043565;28;20268;-62
2021/08/23 05:08:37;;;;;;;2.60;2.40;;;;;;;15.76;96.60;97141.66;5034469;28;20196;-62
2021/08/23 05:11:03;;;;;;;2.40;2.20;;;;;;;15.74;98.08;97138.47;5034116;28;20619;-63
2021/08/23 05:13:28;;;;;;;2.30;2.10;;;;;;;15.69;98.40;97142.91;5034774;28;20642;-71
2021/08/23 05:15:54;;;;;;;2.60;2.10;;;;;;;15.70;98.17;97133.94;5040200;28;20236;-63
2021/08/23 05:18:19;;;;;;;2.10;1.90;;;;;;;15.53;99.32;97141.16;5036978;28;20643;-63
2021/08/23 05:20:44;;;;;;;2.30;2.10;;;;;;;15.54;99.72;97130.34;5034515;28;20190;-62
2021/08/23 05:23:10;;;;;;;3.83;2.50;;;;;;;15.43;99.75;97130.47;5043446;28;20205;-63
2021/08/23 05:25:36;;;;;;;3.47;2.23;;;;;;;15.42;99.80;97126.22;5033439;28;20175;-63
2021/08/23 05:28:03;;;;;;;4.57;2.77;;;;;;;15.45;100.00;97136.28;5017713;28;20189;-64
2021/08/23 05:30:28;;;;;;;4.50;2.60;;;;;;;15.72;98.52;97129.97;5048258;28;20182;-70
2021/08/23 05:32:54;;;;;;;5.37;3.40;;;;;;;15.71;99.00;97143.47;5039968;28;20236;-63
2021/08/23 05:35:19;;;;;;;2.93;2.50;;;;;;;15.78;98.63;97139.56;5036461;28;20187;-62
2021/08/23 05:37:45;;;;;;;5.30;3.03;;;;;;;15.74;100.00;97135.03;5039507;28;20276;-62
2021/08/23 05:40:10;;;;;;;5.53;2.90;;;;;;;15.85;98.83;97139.34;5048429;28;20578;-63
2021/08/23 05:42:36;;;;;;;3.03;2.10;;;;;;;15.96;97.37;97141.03;5032122;28;20210;-63
2021/08/23 05:45:02;;;;;;;2.50;2.30;;;;;;;15.99;97.28;97143.19;5046595;28;20193;-63
2021/08/23 05:47:27;;;;;;;3.70;2.70;;;;;;;15.98;97.27;97146.06;5037974;28;20194;-63
2021/08/23 05:49:53;;;;;;;4.27;2.40;;;;;;;15.98;97.08;97156.66;5039404;28;20187;-63
2021/08/23 05:52:18;;;;;;;2.53;2.33;;;;;;;16.14;95.97;97145.16;5036295;28;20230;-63
2021/08/23 05:54:44;;;;;;;3.27;2.20;;;;;;;16.20;95.93;97144.94;5045279;28;20174;-63
2021/08/23 05:57:10;;;;;;;2.60;2.40;;;;;;;16.39;95.00;97147.16;5035019;28;20659;-64
2021/08/23 05:59:35;;;;;;;2.60;2.07;;;;;;;16.47;93.72;97147.50;5048447;28;20649;-63
2021/08/23 06:02:01;;;;;;;2.10;2.00;;;;;;;16.34;93.73;97149.78;5037032;28;20203;-64
2021/08/23 06:04:26;;;;;;;2.40;2.20;;;;;;;16.33;94.49;97148.22;5033230;28;20181;-64
2021/08/23 06:06:52;;;;;;;3.33;2.27;;;;;;;16.48;93.00;97150.97;5044983;28;20190;-63
2021/08/23 06:09:19;;;;;;;4.20;2.50;;;;;;;16.49;94.02;97152.56;5044104;28;20663;-63
2021/08/23 06:11:45;;;;;;;3.60;2.17;;;;;;;16.59;93.91;97150.00;5049331;28;20196;-64
2021/08/23 06:14:11;;;;;;;3.50;2.20;;;;;;;16.79;92.20;97151.94;5053218;28;20196;-64
2021/08/23 06:16:36;;;;;;;2.40;2.20;;;;;;;16.71;92.22;97152.44;5044627;28;20182;-64
2021/08/23 06:19:02;;;;;;;3.40;2.30;;;;;;;17.09;92.15;97151.31;5037347;28;20690;-64
2021/08/23 06:21:28;;;;;;;2.50;2.17;;;;;;;17.42;90.99;97158.84;5034874;28;20186;-64
2021/08/23 06:23:53;;;;;;;3.37;2.20;;;;;;;17.78;89.44;97149.94;5035601;28;20199;-65
2021/08/23 06:26:18;;;;;;;1.90;1.80;;;;;;;18.02;88.55;97146.78;5049229;28;20189;-65
2021/08/23 06:28:44;;;;;;;4.87;2.13;;;;;;;18.27;87.25;97146.78;5041242;28;20190;-64
2021/08/23 06:31:09;;;;;;;2.53;1.90;;;;;;;18.33;86.32;97140.41;5040432;28;20586;-63
2021/08/23 06:33:35;;;;;;;2.47;1.80;;;;;;;18.34;85.57;97146.50;5044106;28;20182;-63
2021/08/23 06:36:01;;;;;;;1.90;1.80;;;;;;;18.25;85.79;97146.25;5046683;28;20201;-63
2021/08/23 06:38:26;;;;;;;1.70;1.60;;;;;;;18.23;85.86;97146.50;5040408;28;20666;-63
2021/08/23 06:40:52;;;;;;;1.90;1.80;;;;;;;18.40;85.13;97148.09;5042063;28;20232;-64
2021/08/23 06:43:18;;;;;;;3.47;1.97;;;;;;;18.47;84.65;97149.41;5040233;28;20233;-65
2021/08/23 06:45:43;;;;;;;2.10;1.90;;;;;;;18.48;83.83;97153.66;5036215;28;20185;-64
2021/08/23 06:48:08;;;;;;;2.00;1.80;;;;;;;18.51;83.99;97155.78;5044895;28;20197;-63
2021/08/23 06:50:34;;;;;;;3.57;1.80;;;;;;;18.52;83.56;97154.72;5045139;28;20186;-63
2021/08/23 06:52:59;;;;;;;2.87;1.83;;;;;;;18.57;83.66;97152.09;5040066;28;20662;-64
2021/08/23 06:55:25;;;;;;;4.43;1.70;;;;;;;18.53;83.73;97155.50;5038073;28;20190;-63
2021/08/23 06:57:50;;;;;;;1.90;1.80;;;;;;;18.66;83.27;97150.50;5047328;28;20581;-63
2021/08/23 07:00:15;;;;;;;4.33;2.00;;;;;;;18.60;83.70;97156.88;5042987;28;20186;-64
2021/08/23 07:02:41;;;;;;;2.70;2.00;;;;;;;18.61;83.96;97160.31;5045511;28;20194;-63
2021/08/23 07:05:08;;;;;;;2.25;2.05;;;;;;;18.73;83.48;97157.34;5044536;28;20175;-63
2021/08/23 07:07:33;;;;;;;4.70;1.88;;;;;;;18.81;83.37;97151.50;5040516;28;20193;-64
2021/08/23 07:09:59;;;;;;;2.13;1.80;;;;;;;18.95;81.55;97149.84;5040779;28;20183;-63
2021/08/23 07:12:24;;;;;;;2.95;2.53;;;;;;;18.95;81.80;97152.50;5039041;28;20198;-63
2021/08/23 07:14:50;;;;;;;2.60;2.07;;;;;;;19.03;81.20;97159.94;5043257;28;20178;-63
2021/08/23 07:17:15;;;;;;;1.95;1.85;;;;;;;19.00;81.09;97160.50;5041797;28;20540;-63
2021/08/23 07:19:41;;;;;;;2.22;2.00;;;;;;;19.06;80.49;97151.41;5042702;28;20543;-63
2021/08/23 07:22:06;;;;;;;1.90;1.80;;;;;;;18.94;81.40;97162.38;5041621;28;20202;-63
2021/08/23 07:24:31;;;;;;;3.38;1.90;;;;;;;19.07;81.46;97156.47;5038279;28;21473;-63
2021/08/23 07:26:57;;;;;;;3.70;2.13;;;;;;;19.17;80.98;97160.16;5044024;28;20190;-63
2021/08/23 07:29:24;;;;;;;2.90;1.83;;;;;;;19.04;81.68;97161.53;5045568;28;20182;-64
2021/08/23 07:31:50;;;;;;;1.88;1.77;;;;;;;18.90;82.74;97160.50;5044121;28;20185;-63
2021/08/23 07:34:15;;;;;;;2.72;1.90;;;;;;;18.77;82.84;97158.44;5047851;28;20631;-64
2021/08/23 07:36:40;;;;;;;2.20;2.00;;;;;;;18.74;83.45;97161.59;5041314;28;20214;-64
2021/08/23 07:39:06;;;;;;;6.32;2.10;;;;;;;18.71;83.84;97157.66;5047495;28;20525;-64
2021/08/23 07:41:31;;;;;;;2.67;1.98;;;;;;;18.93;83.62;97163.44;5038919;28;20254;-64
2021/08/23 07:43:57;;;;;;;3.58;1.80;;;;;;;19.26;82.36;97154.00;5035576;28;20259;-64
2021/08/23 07:46:22;;;;;;;3.35;2.13;;;;;;;19.59;80.11;97149.88;5042277;28;20201;-65
2021/08/23 07:48:48;;;;;;;2.10;1.67;;;;;;;20.05;78.06;97147.72;5042422;28;20627;-64
2021/08/23 07:51:13;;;;;;;2.70;2.20;;;;;;;20.22;77.04;97147.31;5040042;28;20186;-64
2021/08/23 07:53:39;;;;;;;2.53;2.03;;;;;;;20.24;76.45;97156.59;5038556;28;20186;-64
2021/08/23 07:56:05;;;;;;;2.03;1.92;;;;;;;20.53;75.66;97150.53;5039142;28;20221;-64
2021/08/23 07:58:30;;;;;;;2.33;2.13;;;;;;;20.75;73.99;97150.84;5040496;28;20723;-64
2021/08/23 08:00:56;;;;;;;3.35;1.85;;;;;;;21.11;72.57;97154.72;5035289;28;20488;-65
2021/08/23 08:03:21;;;;;;;3.25;2.22;;;;;;;21.27;71.36;97151.88;5033647;28;20287;-64
2021/08/23 08:05:47;;;;;;;4.05;1.90;;;;;;;21.47;70.13;97152.41;5043902;28;20636;-64
2021/08/23 08:08:12;;;;;;;2.10;1.88;;;;;;;21.08;70.09;97157.94;5042773;28;20190;-64
2021/08/23 08:10:38;;;;;;;1.92;1.80;;;;;;;20.95;71.48;97158.63;5044807;28;20187;-69
2021/08/23 08:13:05;;;;;;;4.03;1.83;;;;;;;20.58;73.29;97159.25;5033305;28;20193;-64
2021/08/23 08:15:30;;;;;;;5.80;2.10;;;;;;;20.21;73.36;97164.38;5045636;28;20186;-64
2021/08/23 08:17:56;;;;;;;4.47;2.17;;;;;;;20.29;73.53;97163.75;5043035;28;20182;-64
2021/08/23 08:20:21;;;;;;;1.83;1.73;;;;;;;20.14;73.68;97166.53;5048073;28;20274;-64
2021/08/23 08:22:47;;;;;;;2.70;1.75;;;;;;;20.12;74.13;97166.81;5039207;28;20606;-64
2021/08/23 08:25:12;;;;;;;3.10;2.03;;;;;;;20.14;74.22;97171.88;5031726;28;20265;-64
2021/08/23 08:27:38;;;;;;;2.88;1.83;;;;;;;19.91;75.02;97168.03;5030818;28;20179;-68
2021/08/23 08:30:05;;;;;;;2.03;1.88;;;;;;;20.09;75.05;97172.69;5031516;28;20242;-64
2021/08/23 08:32:31;;;;;;;3.30;2.45;;;;;;;20.02;75.46;97166.88;5035778;28;20643;-64
2021/08/23 08:34:56;;;;;;;2.90;1.80;;;;;;;20.31;74.63;97174.91;5042109;28;20245;-64
2021/08/23 08:37:22;;;;;;;1.88;1.70;;;;;;;20.87;72.37;97171.78;5036607;28;20636;-65
2021/08/23 08:39:47;;;;;;;4.82;1.92;;;;;;;21.08;71.16;97175.78;5031438;28;20278;-64
2021/08/23 08:42:16;;;;;;;2.85;2.00;;;;;;;21.10;70.62;97179.78;5040281;28;20814;-64
2021/08/23 08:44:43;;;;;;;3.38;2.10;;;;;;;20.43;71.84;97179.91;5040463;28;20202;-64
2021/08/23 08:47:14;;;;;;;2.20;2.00;;;;;;;20.56;71.84;97174.72;5045909;28;20235;-64
2021/08/23 08:49:40;;;;;;;2.13;1.80;;;;;;;20.46;70.47;97172.16;5034273;28;20239;-65
2021/08/23 08:52:07;;;;;;;3.42;1.80;;;;;;;20.26;71.37;97175.75;5038044;28;20647;-64
2021/08/23 08:54:33;;;;;;;2.55;1.90;;;;;;;20.62;70.66;97175.47;5041872;28;20182;-64
2021/08/23 08:57:03;;;;;;;1.80;1.70;;;;;;;20.72;70.15;97181.50;5042219;28;20934;-64
2021/08/23 08:59:29;;;;;;;1.60;1.50;;;;;;;20.55;69.08;97177.69;5041915;28;20198;-64
2021/08/23 09:01:55;;;;;;;2.17;1.80;;;;;;;20.60;69.21;97183.75;5032690;28;20183;-64
2021/08/23 09:04:32;;;;;;;1.85;1.75;;;;;;;20.44;68.80;97181.50;5046424;28;20236;-64
2021/08/23 09:06:59;;;;;;;1.85;1.55;;;;;;;19.94;70.77;97191.44;5026593;28;20759;-63
2021/08/23 09:09:25;;;;;;;2.00;1.67;;;;;;;19.92;70.99;97188.25;5039462;28;20194;-64
2021/08/23 09:12:03;;;;;;;3.38;1.80;;;;;;;20.34;70.49;97187.69;5039554;28;20179;-64
2021/08/23 09:14:30;;;;;;;2.00;1.80;;;;;;;20.96;67.55;97191.38;5044984;28;20628;-67
2021/08/23 09:17:06;;;;;;;2.55;1.73;;;;;;;21.03;66.47;97189.97;5041955;28;20974;-64
2021/08/23 09:19:34;;;;;;;2.08;1.92;;;;;;;21.39;65.99;97192.28;5045869;28;20177;-64
2021/08/23 09:22:02;;;;;;;2.35;1.60;;;;;;;21.27;65.99;97195.34;5031518;28;20248;-64
2021/08/23 09:24:32;;;;;;;1.83;1.70;;;;;;;20.83;68.36;97195.53;5034286;28;20195;-64
2021/08/23 09:27:12;;;;;;;3.10;2.00;;;;;;;20.73;68.51;97190.31;5038725;28;20639;-64
2021/08/23 09:29:55;;;;;;;2.20;2.00;;;;;;;20.55;70.27;97199.00;5038662;28;20183;-69
2021/08/23 09:32:23;;;;;;;2.83;1.90;;;;;;;21.00;68.71;97195.09;5039733;28;20174;-64
2021/08/23 09:34:49;;;;;;;4.00;1.80;;;;;;;21.41;67.04;97198.09;5036004;28;20565;-64
2021/08/23 09:37:28;;;;;;;2.47;1.70;;;;;;;21.75;66.66;97198.72;5044500;28;20190;-63
2021/08/23 09:39:54;;;;;;;2.22;1.77;;;;;;;22.21;64.18;97203.44;5038771;28;20187;-64
2021/08/23 09:42:21;;;;;;;2.53;1.73;;;;;;;22.60;62.60;97198.53;5040190;28;20273;-64
2021/08/23 09:44:47;;;;;;;2.10;1.63;;;;;;;22.64;61.31;97201.41;5048636;28;20185;-64
2021/08/23 09:47:12;;;;;;;2.20;1.70;;;;;;;22.59;60.39;97199.63;5036824;28;20558;-64
2021/08/23 09:49:40;;;;;;;2.28;1.58;;;;;;;22.50;61.27;97200.59;5048773;28;20231;-68
2021/08/23 09:52:07;;;;;;;2.83;1.67;;;;;;;21.92;62.38;97195.56;5041007;28;20198;-67
2021/08/23 09:54:33;;;;;;;4.43;2.28;;;;;;;22.59;61.15;97196.16;5047220;28;20182;-64
2021/08/23 09:56:58;;;;;;;2.92;2.00;;;;;;;22.90;60.52;97193.78;5040036;28;20183;-64
2021/08/23 09:59:26;;;;;;;1.80;1.60;;;;;;;22.99;59.46;97187.44;5041043;28;20266;-65
2021/08/23 10:01:54;;;;;;;2.03;1.67;;;;;;;22.84;59.68;97193.06;5043241;28;20273;-69
2021/08/23 10:04:21;;;;;;;2.47;1.50;;;;;;;22.93;60.47;97201.19;5045231;28;20191;-65
2021/08/23 10:06:48;;;;;;;3.08;1.60;;;;;;;23.15;59.34;97199.44;5042433;28;20282;-65
2021/08/23 10:09:20;;;;;;;3.33;2.10;;;;;;;23.67;56.85;97197.34;5037542;28;20208;-65
2021/08/23 10:11:46;;;;;;;2.85;1.50;;;;;;;23.87;56.55;97191.53;5041545;28;20178;-64
2021/08/23 10:14:11;;;;;;;3.00;2.05;;;;;;;23.86;55.90;97197.97;5042573;28;20248;-64
2021/08/23 10:16:37;;;;;;;1.60;1.45;;;;;;;22.89;59.12;97202.88;5034270;28;20627;-64
2021/08/23 10:19:04;;;;;;;2.60;1.98;;;;;;;22.12;61.91;97206.00;5042535;28;20198;-64
2021/08/23 10:21:30;;;;;;;2.90;2.60;;;;;;;21.07;66.87;97200.84;5039529;28;20264;-66
2021/08/23 10:23:57;;;;;;;3.10;2.70;;;;;;;20.80;69.67;97193.41;5043409;28;20564;-66
2021/08/23 10:26:23;;;;;;;4.53;2.72;;;;;;;19.86;73.36;97200.00;5046808;28;20259;-66
2021/08/23 10:28:49;;;;;;;3.13;2.78;;;;;;;19.46;75.51;97203.66;5043927;28;20193;-67
2021/08/23 10:31:17;;;;;;;3.42;2.72;;;;;;;19.15;77.24;97210.94;5050692;28;20187;-66
2021/08/23 10:33:44;;;;;;;2.92;2.53;;;;;;;18.91;79.28;97205.41;5042319;28;20190;-67
2021/08/23 10:36:16;;;;;;;4.78;3.05;;;;;;;19.00;79.51;97206.44;5043084;28;20646;-65
2021/08/23 10:38:43;;;;;;;2.95;2.45;;;;;;;19.21;78.85;97204.53;5042550;28;20182;-69
2021/08/23 10:41:23;;;;;;;2.75;2.55;;;;;;;19.17;80.29;97200.03;5045545;28;20226;-66
2021/08/23 10:43:54;;;;;;;4.25;2.88;;;;;;;19.08;80.49;97200.56;5037796;28;20206;-66
2021/08/23 10:46:34;;;;;;;4.90;3.25;;;;;;;19.48;80.40;97201.53;5041496;28;20304;-66
2021/08/23 10:49:12;;;;;;;4.40;3.30;;;;;;;19.14;79.59;97200.56;5040548;28;20175;-66
2021/08/23 10:51:56;;;;;;;6.15;3.05;;;;;;;19.61;79.14;97197.50;5038418;28;20209;-70
2021/08/23 10:54:22;;;;;;;3.28;2.95;;;;;;;19.80;79.34;97193.91;5040036;28;20183;-68
2021/08/23 10:57:00;;;;;;;3.65;2.80;;;;;;;20.25;76.00;97189.34;5038619;28;20659;-66
2021/08/23 10:59:40;;;;;;;3.72;2.67;;;;;;;19.91;75.67;97191.97;5046134;28;20178;-66
2021/08/23 11:02:06;;;;;;;6.28;3.00;;;;;;;19.77;75.49;97193.66;5037945;28;20178;-66
2021/08/23 11:04:40;;;;;;;2.63;2.42;;;;;;;19.73;74.57;97196.06;5038678;28;20214;-66
2021/08/23 11:07:07;;;;;;;3.53;2.50;;;;;;;20.17;75.56;97196.03;5048157;28;20213;-66
2021/08/23 11:09:43;;;;;;;3.13;2.10;;;;;;;20.57;70.82;97196.81;5033959;28;20194;-66
2021/08/23 11:12:08;;;;;;;3.05;2.30;;;;;;;21.25;69.83;97192.16;5045356;28;20186;-66
2021/08/23 11:15:10;;;;;;;2.75;2.25;;;;;;;21.25;67.71;97188.69;5040492;28;20202;-66
2021/08/23 11:17:44;;;;;;;2.50;2.30;;;;;;;21.45;67.87;97183.94;5044566;28;20215;-66
2021/08/23 11:20:10;;;;;;;3.03;2.22;;;;;;;21.10;67.83;97184.31;5045074;28;20264;-66
2021/08/23 11:22:35;;;;;;;3.88;1.92;;;;;;;21.29;67.58;97187.06;5037884;28;20301;-66
2021/08/23 11:25:00;;;;;;;2.10;2.00;;;;;;;20.80;69.45;97180.09;5041819;28;20347;-66
2021/08/23 11:27:26;;;;;;;3.80;2.27;;;;;;;20.40;70.71;97183.13;5041443;28;20353;-65
2021/08/23 11:29:54;;;;;;;2.13;2.03;;;;;;;20.55;69.61;97183.81;5040427;28;20206;-64
2021/08/23 11:32:24;;;;;;;2.35;1.85;;;;;;;20.51;70.76;97184.63;5049865;28;20626;-65